sensor_id;sensor_type;location;lat;lon;timestamp;pressure;altitude;pressure_sealevel;temperature;humidity
18500;BME280;9379;52.134;11.576;2023-07-13T00:02:06;100648.00;;;21.72;74.58
18500;BME280;9379;52.134;11.576;2023-07-13T00:04:33;100652.78;;;21.83;74.53
18500;BME280;9379;52.134;11.576;2023-07-13T00:07:01;100650.69;;;21.59;75.48
18500;BME280;9379;52.134;11.576;2023-07-13T00:09:30;100659.84;;;21.58;76.12
18500;BME280;9379;52.134;11.576;2023-07-13T00:11:57;100661.09;;;21.75;75.81
18500;BME280;9379;52.134;11.576;2023-07-13T00:14:27;100675.44;;;21.62;75.16
18500;BME280;9379;52.134;11.576;2023-07-13T00:16:55;100677.09;;;21.50;76.21
18500;BME280;9379;52.134;11.576;2023-07-13T00:19:22;100687.50;;;21.46;75.43
18500;BME280;9379;52.134;11.576;2023-07-13T00:21:48;100682.75;;;21.01;77.00
18500;BME280;9379;52.134;11.576;2023-07-13T00:24:17;100699.09;;;20.86;78.40
18500;BME280;9379;52.134;11.576;2023-07-13T00:26:49;100697.50;;;20.63;78.44
18500;BME280;9379;52.134;11.576;2023-07-13T00:29:15;100705.00;;;20.40;79.04
18500;BME280;9379;52.134;11.576;2023-07-13T00:31:43;100701.97;;;20.22;79.64
18500;BME280;9379;52.134;11.576;2023-07-13T00:34:11;100707.16;;;20.23;79.33
18500;BME280;9379;52.134;11.576;2023-07-13T00:36:38;100718.69;;;20.10;80.00
18500;BME280;9379;52.134;11.576;2023-07-13T00:39:05;100707.66;;;20.05;79.91
18500;BME280;9379;52.134;11.576;2023-07-13T00:41:32;100708.38;;;20.21;79.39
18500;BME280;9379;52.134;11.576;2023-07-13T00:43:59;100697.38;;;20.22;79.84
18500;BME280;9379;52.134;11.576;2023-07-13T00:46:27;100699.06;;;20.23;79.94
18500;BME280;9379;52.134;11.576;2023-07-13T00:49:00;100695.38;;;20.03;80.49
18500;BME280;9379;52.134;11.576;2023-07-13T00:51:32;100698.38;;;20.15;79.82
18500;BME280;9379;52.134;11.576;2023-07-13T00:54:04;100697.78;;;19.91;80.66
18500;BME280;9379;52.134;11.576;2023-07-13T00:56:32;100698.66;;;19.77;80.63
18500;BME280;9379;52.134;11.576;2023-07-13T00:59:00;100704.66;;;19.72;81.60
18500;BME280;9379;52.134;11.576;2023-07-13T01:01:28;100700.16;;;20.29;79.86
18500;BME280;9379;52.134;11.576;2023-07-13T01:03:56;100697.00;;;20.25;79.23
18500;BME280;9379;52.134;11.576;2023-07-13T01:06:23;100702.59;;;19.96;80.11
18500;BME280;9379;52.134;11.576;2023-07-13T01:08:50;100704.63;;;19.94;80.36
18500;BME280;9379;52.134;11.576;2023-07-13T01:11:19;100713.28;;;19.68;81.40
18500;BME280;9379;52.134;11.576;2023-07-13T01:13:46;100711.84;;;19.50;81.93
18500;BME280;9379;52.134;11.576;2023-07-13T01:16:26;100706.03;;;19.90;81.31
18500;BME280;9379;52.134;11.576;2023-07-13T01:18:53;100699.50;;;19.77;81.93
18500;BME280;9379;52.134;11.576;2023-07-13T01:21:25;100707.97;;;19.74;82.25
18500;BME280;9379;52.134;11.576;2023-07-13T01:23:53;100699.38;;;19.86;81.08
18500;BME280;9379;52.134;11.576;2023-07-13T01:26:19;100689.53;;;19.78;81.81
18500;BME280;9379;52.134;11.576;2023-07-13T01:28:46;100692.72;;;20.09;80.92
18500;BME280;9379;52.134;11.576;2023-07-13T01:31:13;100690.06;;;20.37;80.64
18500;BME280;9379;52.134;11.576;2023-07-13T01:33:40;100683.72;;;20.52;80.46
18500;BME280;9379;52.134;11.576;2023-07-13T01:36:08;100675.97;;;20.42;79.91
18500;BME280;9379;52.134;11.576;2023-07-13T01:38:37;100683.00;;;19.87;81.45
18500;BME280;9379;52.134;11.576;2023-07-13T01:41:03;100688.38;;;19.87;82.31
18500;BME280;9379;52.134;11.576;2023-07-13T01:43:30;100692.50;;;20.04;81.73
18500;BME280;9379;52.134;11.576;2023-07-13T01:45:58;100698.97;;;19.67;82.36
18500;BME280;9379;52.134;11.576;2023-07-13T01:48:24;100700.03;;;19.51;83.54
18500;BME280;9379;52.134;11.576;2023-07-13T01:50:51;100697.09;;;19.68;83.43
18500;BME280;9379;52.134;11.576;2023-07-13T01:53:18;100701.03;;;19.87;82.62
18500;BME280;9379;52.134;11.576;2023-07-13T01:55:46;100703.72;;;19.65;82.99
18500;BME280;9379;52.134;11.576;2023-07-13T01:58:13;100704.88;;;19.77;83.14
18500;BME280;9379;52.134;11.576;2023-07-13T02:00:40;100694.88;;;19.93;82.58
18500;BME280;9379;52.134;11.576;2023-07-13T02:03:06;100699.91;;;20.02;82.50
18500;BME280;9379;52.134;11.576;2023-07-13T02:05:33;100712.84;;;19.86;82.06
18500;BME280;9379;52.134;11.576;2023-07-13T02:08:00;100705.75;;;19.57;83.40
18500;BME280;9379;52.134;11.576;2023-07-13T02:10:27;100711.00;;;19.86;82.22
18500;BME280;9379;52.134;11.576;2023-07-13T02:12:56;100708.63;;;19.76;82.79
18500;BME280;9379;52.134;11.576;2023-07-13T02:15:23;100714.63;;;20.21;82.01
18500;BME280;9379;52.134;11.576;2023-07-13T02:17:50;100715.50;;;20.50;81.48
18500;BME280;9379;52.134;11.576;2023-07-13T02:20:16;100720.41;;;20.18;81.19
18500;BME280;9379;52.134;11.576;2023-07-13T02:22:43;100716.41;;;20.14;81.38
18500;BME280;9379;52.134;11.576;2023-07-13T02:25:10;100717.41;;;19.85;82.59
18500;BME280;9379;52.134;11.576;2023-07-13T02:27:37;100715.84;;;20.19;81.77
18500;BME280;9379;52.134;11.576;2023-07-13T02:30:06;100710.72;;;20.86;79.19
18500;BME280;9379;52.134;11.576;2023-07-13T02:32:33;100716.47;;;20.42;80.96
18500;BME280;9379;52.134;11.576;2023-07-13T02:35:00;100705.56;;;20.29;80.93
18500;BME280;9379;52.134;11.576;2023-07-13T02:37:27;100706.25;;;20.72;79.67
18500;BME280;9379;52.134;11.576;2023-07-13T02:39:55;100691.63;;;20.94;78.69
18500;BME280;9379;52.134;11.576;2023-07-13T02:42:22;100696.34;;;20.79;78.82
18500;BME280;9379;52.134;11.576;2023-07-13T02:44:48;100699.47;;;20.76;79.31
18500;BME280;9379;52.134;11.576;2023-07-13T02:47:17;100686.94;;;21.16;78.72
18500;BME280;9379;52.134;11.576;2023-07-13T02:49:44;100699.13;;;21.40;76.82
18500;BME280;9379;52.134;11.576;2023-07-13T02:52:11;100696.97;;;21.22;77.29
18500;BME280;9379;52.134;11.576;2023-07-13T02:54:39;100697.59;;;20.83;78.57
18500;BME280;9379;52.134;11.576;2023-07-13T02:57:06;100691.94;;;20.72;78.92
18500;BME280;9379;52.134;11.576;2023-07-13T02:59:33;100690.78;;;20.87;78.60
18500;BME280;9379;52.134;11.576;2023-07-13T03:02:00;100690.06;;;20.72;79.11
18500;BME280;9379;52.134;11.576;2023-07-13T03:04:29;100692.94;;;20.64;79.38
18500;BME280;9379;52.134;11.576;2023-07-13T03:06:55;100689.31;;;20.85;78.14
18500;BME280;9379;52.134;11.576;2023-07-13T03:09:24;100695.53;;;21.26;77.03
18500;BME280;9379;52.134;11.576;2023-07-13T03:11:52;100693.00;;;21.25;76.05
18500;BME280;9379;52.134;11.576;2023-07-13T03:14:19;100686.78;;;20.83;77.21
18500;BME280;9379;52.134;11.576;2023-07-13T03:16:46;100687.66;;;20.84;78.05
18500;BME280;9379;52.134;11.576;2023-07-13T03:19:12;100690.53;;;20.82;78.35
18500;BME280;9379;52.134;11.576;2023-07-13T03:21:41;100686.63;;;20.85;78.68
18500;BME280;9379;52.134;11.576;2023-07-13T03:24:08;100688.25;;;20.45;79.26
18500;BME280;9379;52.134;11.576;2023-07-13T03:26:34;100685.66;;;20.99;77.00
18500;BME280;9379;52.134;11.576;2023-07-13T03:29:01;100694.84;;;20.70;77.88
18500;BME280;9379;52.134;11.576;2023-07-13T03:36:38;100700.72;;;20.24;79.92
18500;BME280;9379;52.134;11.576;2023-07-13T03:39:09;100704.25;;;20.46;79.87
18500;BME280;9379;52.134;11.576;2023-07-13T03:41:36;100688.03;;;20.46;79.77
18500;BME280;9379;52.134;11.576;2023-07-13T03:44:03;100698.50;;;20.56;79.12
18500;BME280;9379;52.134;11.576;2023-07-13T03:46:30;100697.66;;;20.27;80.22
18500;BME280;9379;52.134;11.576;2023-07-13T03:48:59;100710.13;;;20.28;80.67
18500;BME280;9379;52.134;11.576;2023-07-13T03:51:25;100711.97;;;20.49;79.33
18500;BME280;9379;52.134;11.576;2023-07-13T03:53:52;100696.56;;;20.78;79.06
18500;BME280;9379;52.134;11.576;2023-07-13T03:56:20;100711.09;;;20.83;78.65
18500;BME280;9379;52.134;11.576;2023-07-13T03:58:48;100720.44;;;20.81;79.58
18500;BME280;9379;52.134;11.576;2023-07-13T04:01:17;100727.69;;;20.74;79.24
18500;BME280;9379;52.134;11.576;2023-07-13T04:03:45;100725.56;;;20.69;79.69
18500;BME280;9379;52.134;11.576;2023-07-13T04:06:15;100726.09;;;20.51;80.21
18500;BME280;9379;52.134;11.576;2023-07-13T04:08:47;100737.25;;;20.20;80.80
18500;BME280;9379;52.134;11.576;2023-07-13T04:11:15;100737.75;;;20.09;81.81
18500;BME280;9379;52.134;11.576;2023-07-13T04:13:44;100742.44;;;20.00;81.82
18500;BME280;9379;52.134;11.576;2023-07-13T04:16:11;100743.47;;;19.99;81.81
18500;BME280;9379;52.134;11.576;2023-07-13T04:18:38;100752.41;;;20.00;82.38
18500;BME280;9379;52.134;11.576;2023-07-13T04:21:05;100753.31;;;20.07;81.79
18500;BME280;9379;52.134;11.576;2023-07-13T04:23:31;100764.31;;;20.27;81.69
18500;BME280;9379;52.134;11.576;2023-07-13T04:25:58;100766.50;;;20.17;81.17
18500;BME280;9379;52.134;11.576;2023-07-13T04:28:25;100756.56;;;20.24;81.71
18500;BME280;9379;52.134;11.576;2023-07-13T04:30:54;100745.56;;;20.47;81.17
18500;BME280;9379;52.134;11.576;2023-07-13T04:33:21;100747.94;;;20.56;81.45
18500;BME280;9379;52.134;11.576;2023-07-13T04:35:48;100754.38;;;20.55;81.65
18500;BME280;9379;52.134;11.576;2023-07-13T04:38:19;100755.56;;;20.81;80.33
18500;BME280;9379;52.134;11.576;2023-07-13T04:40:47;100755.81;;;20.30;81.68
18500;BME280;9379;52.134;11.576;2023-07-13T04:43:14;100746.41;;;20.26;81.95
18500;BME280;9379;52.134;11.576;2023-07-13T04:45:41;100754.38;;;20.90;81.33
18500;BME280;9379;52.134;11.576;2023-07-13T04:48:09;100761.44;;;20.56;80.78
18500;BME280;9379;52.134;11.576;2023-07-13T04:50:37;100757.78;;;20.71;81.04
18500;BME280;9379;52.134;11.576;2023-07-13T04:53:04;100763.72;;;20.53;81.67
18500;BME280;9379;52.134;11.576;2023-07-13T04:55:31;100771.63;;;20.89;80.61
18500;BME280;9379;52.134;11.576;2023-07-13T04:57:58;100763.59;;;21.02;80.40
18500;BME280;9379;52.134;11.576;2023-07-13T05:00:25;100763.16;;;20.98;80.50
18500;BME280;9379;52.134;11.576;2023-07-13T05:02:54;100766.19;;;20.82;81.03
18500;BME280;9379;52.134;11.576;2023-07-13T05:05:22;100768.94;;;20.89;80.58
18500;BME280;9379;52.134;11.576;2023-07-13T05:07:49;100777.09;;;20.95;80.98
18500;BME280;9379;52.134;11.576;2023-07-13T05:10:16;100776.06;;;20.96;80.72
18500;BME280;9379;52.134;11.576;2023-07-13T05:12:43;100782.59;;;21.57;78.78
18500;BME280;9379;52.134;11.576;2023-07-13T05:15:10;100782.28;;;21.32;80.57
18500;BME280;9379;52.134;11.576;2023-07-13T05:17:37;100780.06;;;21.07;82.29
18500;BME280;9379;52.134;11.576;2023-07-13T05:20:05;100778.16;;;21.36;82.22
18500;BME280;9379;52.134;11.576;2023-07-13T05:22:33;100776.53;;;21.48;81.17
18500;BME280;9379;52.134;11.576;2023-07-13T05:25:01;100777.84;;;21.65;79.84
18500;BME280;9379;52.134;11.576;2023-07-13T05:27:28;100767.78;;;21.52;79.57
18500;BME280;9379;52.134;11.576;2023-07-13T05:29:54;100774.19;;;21.32;80.73
18500;BME280;9379;52.134;11.576;2023-07-13T05:32:21;100777.84;;;21.24;80.96
18500;BME280;9379;52.134;11.576;2023-07-13T05:34:51;100780.69;;;21.44;81.57
18500;BME280;9379;52.134;11.576;2023-07-13T05:37:18;100783.41;;;21.50;79.65
18500;BME280;9379;52.134;11.576;2023-07-13T05:39:46;100782.84;;;21.75;78.26
18500;BME280;9379;52.134;11.576;2023-07-13T05:42:13;100776.31;;;21.43;79.51
18500;BME280;9379;52.134;11.576;2023-07-13T05:44:40;100764.91;;;21.54;78.80
18500;BME280;9379;52.134;11.576;2023-07-13T05:47:07;100790.72;;;21.63;77.97
18500;BME280;9379;52.134;11.576;2023-07-13T05:49:34;100779.91;;;21.63;78.47
18500;BME280;9379;52.134;11.576;2023-07-13T05:52:00;100781.41;;;21.85;77.33
18500;BME280;9379;52.134;11.576;2023-07-13T05:54:27;100781.63;;;21.77;77.07
18500;BME280;9379;52.134;11.576;2023-07-13T05:56:55;100787.53;;;22.21;76.26
18500;BME280;9379;52.134;11.576;2023-07-13T05:59:22;100786.59;;;21.74;76.50
18500;BME280;9379;52.134;11.576;2023-07-13T06:01:49;100784.97;;;21.79;76.28
18500;BME280;9379;52.134;11.576;2023-07-13T06:04:17;100784.72;;;21.74;76.43
18500;BME280;9379;52.134;11.576;2023-07-13T06:06:44;100773.78;;;22.09;75.85
18500;BME280;9379;52.134;11.576;2023-07-13T06:09:11;100779.53;;;21.79;76.50
18500;BME280;9379;52.134;11.576;2023-07-13T06:11:37;100778.09;;;21.83;75.95
18500;BME280;9379;52.134;11.576;2023-07-13T06:14:05;100783.16;;;22.06;74.67
18500;BME280;9379;52.134;11.576;2023-07-13T06:16:32;100786.84;;;21.85;75.67
18500;BME280;9379;52.134;11.576;2023-07-13T06:18:59;100799.84;;;22.17;74.89
18500;BME280;9379;52.134;11.576;2023-07-13T06:21:26;100791.09;;;22.41;73.74
18500;BME280;9379;52.134;11.576;2023-07-13T06:23:52;100796.78;;;23.37;70.64
18500;BME280;9379;52.134;11.576;2023-07-13T06:26:20;100789.31;;;23.26;71.45
18500;BME280;9379;52.134;11.576;2023-07-13T06:28:47;100794.03;;;22.39;74.99
18500;BME280;9379;52.134;11.576;2023-07-13T06:31:16;100801.09;;;22.40;74.38
18500;BME280;9379;52.134;11.576;2023-07-13T06:33:43;100789.00;;;22.83;72.50
18500;BME280;9379;52.134;11.576;2023-07-13T06:36:10;100790.44;;;23.05;72.19
18500;BME280;9379;52.134;11.576;2023-07-13T06:38:37;100797.56;;;22.27;74.07
18500;BME280;9379;52.134;11.576;2023-07-13T06:41:05;100797.75;;;22.45;73.16
18500;BME280;9379;52.134;11.576;2023-07-13T06:43:32;100785.88;;;22.99;73.13
18500;BME280;9379;52.134;11.576;2023-07-13T06:45:59;100801.50;;;22.77;71.68
18500;BME280;9379;52.134;11.576;2023-07-13T06:48:27;100793.78;;;22.67;73.33
18500;BME280;9379;52.134;11.576;2023-07-13T06:50:54;100792.56;;;22.37;73.04
18500;BME280;9379;52.134;11.576;2023-07-13T06:53:22;100791.88;;;24.04;69.16
18500;BME280;9379;52.134;11.576;2023-07-13T06:55:50;100784.31;;;25.12;66.16
18500;BME280;9379;52.134;11.576;2023-07-13T06:58:17;100790.13;;;24.72;66.12
18500;BME280;9379;52.134;11.576;2023-07-13T07:00:44;100793.41;;;23.55;68.52
18500;BME280;9379;52.134;11.576;2023-07-13T07:03:11;100792.81;;;23.91;67.86
18500;BME280;9379;52.134;11.576;2023-07-13T07:05:39;100798.25;;;23.84;67.41
18500;BME280;9379;52.134;11.576;2023-07-13T07:08:06;100801.94;;;23.65;67.63
18500;BME280;9379;52.134;11.576;2023-07-13T07:10:33;100802.00;;;23.90;68.38
18500;BME280;9379;52.134;11.576;2023-07-13T07:13:00;100800.38;;;24.14;68.25
18500;BME280;9379;52.134;11.576;2023-07-13T07:15:27;100806.03;;;24.12;67.98
18500;BME280;9379;52.134;11.576;2023-07-13T07:17:54;100801.34;;;24.26;68.40
18500;BME280;9379;52.134;11.576;2023-07-13T07:20:21;100817.75;;;24.06;68.13
18500;BME280;9379;52.134;11.576;2023-07-13T07:22:49;100812.81;;;23.52;69.14
18500;BME280;9379;52.134;11.576;2023-07-13T07:25:16;100811.16;;;23.96;67.17
18500;BME280;9379;52.134;11.576;2023-07-13T07:27:43;100816.53;;;24.09;66.70
18500;BME280;9379;52.134;11.576;2023-07-13T07:30:10;100826.34;;;23.65;66.75
18500;BME280;9379;52.134;11.576;2023-07-13T07:32:37;100825.22;;;23.86;66.80
18500;BME280;9379;52.134;11.576;2023-07-13T07:35:05;100830.88;;;23.13;68.27
18500;BME280;9379;52.134;11.576;2023-07-13T07:37:32;100826.66;;;23.31;69.26
18500;BME280;9379;52.134;11.576;2023-07-13T07:40:00;100823.34;;;23.28;68.69
18500;BME280;9379;52.134;11.576;2023-07-13T07:42:27;100816.75;;;23.56;69.18
18500;BME280;9379;52.134;11.576;2023-07-13T07:44:54;100815.81;;;23.89;68.45
18500;BME280;9379;52.134;11.576;2023-07-13T07:47:21;100808.88;;;23.93;67.98
18500;BME280;9379;52.134;11.576;2023-07-13T07:49:48;100814.03;;;24.64;65.81
18500;BME280;9379;52.134;11.576;2023-07-13T07:52:15;100814.00;;;24.07;67.15
18500;BME280;9379;52.134;11.576;2023-07-13T07:54:42;100807.72;;;24.70;64.82
18500;BME280;9379;52.134;11.576;2023-07-13T07:57:10;100799.66;;;25.00;64.14
18500;BME280;9379;52.134;11.576;2023-07-13T07:59:37;100809.53;;;25.19;62.42
18500;BME280;9379;52.134;11.576;2023-07-13T08:02:04;100806.00;;;24.51;64.77
18500;BME280;9379;52.134;11.576;2023-07-13T08:04:31;100817.19;;;24.36;66.33
18500;BME280;9379;52.134;11.576;2023-07-13T08:06:58;100817.31;;;23.78;65.56
18500;BME280;9379;52.134;11.576;2023-07-13T08:09:28;100805.66;;;24.09;65.56
18500;BME280;9379;52.134;11.576;2023-07-13T08:11:54;100802.78;;;24.35;63.96
18500;BME280;9379;52.134;11.576;2023-07-13T08:14:23;100820.28;;;24.39;64.71
18500;BME280;9379;52.134;11.576;2023-07-13T08:16:49;100818.81;;;24.43;63.11
18500;BME280;9379;52.134;11.576;2023-07-13T08:19:22;100829.81;;;23.85;64.47
18500;BME280;9379;52.134;11.576;2023-07-13T08:21:49;100824.22;;;24.12;64.28
18500;BME280;9379;52.134;11.576;2023-07-13T08:24:16;100804.09;;;24.51;62.62
18500;BME280;9379;52.134;11.576;2023-07-13T08:27:01;100813.50;;;24.24;65.96
18500;BME280;9379;52.134;11.576;2023-07-13T08:29:29;100811.03;;;24.72;63.82
18500;BME280;9379;52.134;11.576;2023-07-13T08:31:57;100820.25;;;24.46;62.92
18500;BME280;9379;52.134;11.576;2023-07-13T08:34:24;100819.41;;;24.14;63.26
18500;BME280;9379;52.134;11.576;2023-07-13T08:36:50;100816.75;;;24.64;59.24
18500;BME280;9379;52.134;11.576;2023-07-13T08:39:17;100816.31;;;24.10;61.11
18500;BME280;9379;52.134;11.576;2023-07-13T08:41:45;100815.00;;;23.81;61.87
18500;BME280;9379;52.134;11.576;2023-07-13T08:44:19;100816.94;;;24.06;61.88
18500;BME280;9379;52.134;11.576;2023-07-13T08:46:51;100820.91;;;24.10;62.11
18500;BME280;9379;52.134;11.576;2023-07-13T08:49:22;100816.56;;;23.96;64.51
18500;BME280;9379;52.134;11.576;2023-07-13T08:51:53;100824.94;;;23.94;64.79
18500;BME280;9379;52.134;11.576;2023-07-13T08:54:26;100828.94;;;24.23;63.83
18500;BME280;9379;52.134;11.576;2023-07-13T08:56:54;100822.06;;;24.77;62.34
18500;BME280;9379;52.134;11.576;2023-07-13T08:59:25;100824.56;;;24.79;60.72
18500;BME280;9379;52.134;11.576;2023-07-13T09:02:05;100826.44;;;24.53;64.44
18500;BME280;9379;52.134;11.576;2023-07-13T09:04:37;100825.06;;;24.69;63.22
18500;BME280;9379;52.134;11.576;2023-07-13T09:07:12;100816.19;;;24.80;60.46
18500;BME280;9379;52.134;11.576;2023-07-13T09:09:52;100819.22;;;25.15;60.25
18500;BME280;9379;52.134;11.576;2023-07-13T09:12:27;100822.31;;;25.37;61.12
18500;BME280;9379;52.134;11.576;2023-07-13T09:14:59;100811.41;;;25.55;60.84
18500;BME280;9379;52.134;11.576;2023-07-13T09:17:35;100824.25;;;24.68;60.87
18500;BME280;9379;52.134;11.576;2023-07-13T09:20:09;100816.41;;;25.04;58.87
18500;BME280;9379;52.134;11.576;2023-07-13T09:22:37;100825.38;;;25.22;57.82
18500;BME280;9379;52.134;11.576;2023-07-13T09:25:06;100826.13;;;25.11;57.18
18500;BME280;9379;52.134;11.576;2023-07-13T09:27:43;100824.88;;;24.89;58.04
18500;BME280;9379;52.134;11.576;2023-07-13T09:30:30;100830.63;;;24.56;57.22
18500;BME280;9379;52.134;11.576;2023-07-13T09:33:01;100829.28;;;24.40;58.32
18500;BME280;9379;52.134;11.576;2023-07-13T09:35:30;100833.47;;;24.67;56.76
18500;BME280;9379;52.134;11.576;2023-07-13T09:38:01;100828.84;;;25.11;59.33
18500;BME280;9379;52.134;11.576;2023-07-13T09:40:43;100824.00;;;25.68;58.09
18500;BME280;9379;52.134;11.576;2023-07-13T09:43:13;100821.25;;;25.20;57.89
18500;BME280;9379;52.134;11.576;2023-07-13T09:45:45;100832.59;;;24.92;59.75
18500;BME280;9379;52.134;11.576;2023-07-13T09:48:15;100824.41;;;25.17;57.52
18500;BME280;9379;52.134;11.576;2023-07-13T09:50:43;100816.84;;;25.19;57.30
18500;BME280;9379;52.134;11.576;2023-07-13T09:53:15;100815.72;;;25.93;57.56
18500;BME280;9379;52.134;11.576;2023-07-13T09:55:43;100829.44;;;25.68;56.02
18500;BME280;9379;52.134;11.576;2023-07-13T09:58:13;100824.25;;;25.85;55.93
18500;BME280;9379;52.134;11.576;2023-07-13T10:00:41;100818.75;;;26.15;55.76
18500;BME280;9379;52.134;11.576;2023-07-13T10:03:20;100826.44;;;25.58;54.47
18500;BME280;9379;52.134;11.576;2023-07-13T10:05:48;100825.75;;;25.81;55.91
18500;BME280;9379;52.134;11.576;2023-07-13T10:08:23;100837.19;;;25.53;55.92
18500;BME280;9379;52.134;11.576;2023-07-13T10:10:57;100837.06;;;25.48;56.25
18500;BME280;9379;52.134;11.576;2023-07-13T10:13:31;100833.09;;;25.80;55.89
18500;BME280;9379;52.134;11.576;2023-07-13T10:16:00;100823.59;;;25.71;56.21
18500;BME280;9379;52.134;11.576;2023-07-13T10:18:29;100839.09;;;26.01;55.24
18500;BME280;9379;52.134;11.576;2023-07-13T10:21:10;100843.41;;;26.62;56.39
18500;BME280;9379;52.134;11.576;2023-07-13T10:23:38;100849.59;;;26.27;55.41
18500;BME280;9379;52.134;11.576;2023-07-13T10:26:12;100850.06;;;25.82;57.96
18500;BME280;9379;52.134;11.576;2023-07-13T10:28:40;100833.84;;;25.69;57.70
18500;BME280;9379;52.134;11.576;2023-07-13T10:31:12;100842.34;;;25.61;59.31
18500;BME280;9379;52.134;11.576;2023-07-13T10:33:42;100846.06;;;26.80;56.70
18500;BME280;9379;52.134;11.576;2023-07-13T10:36:14;100843.94;;;27.06;55.39
18500;BME280;9379;52.134;11.576;2023-07-13T10:38:43;100843.81;;;26.65;58.58
18500;BME280;9379;52.134;11.576;2023-07-13T10:41:15;100860.81;;;26.37;57.03
18500;BME280;9379;52.134;11.576;2023-07-13T10:43:46;100865.16;;;25.97;57.30
18500;BME280;9379;52.134;11.576;2023-07-13T10:46:17;100859.94;;;25.95;59.05
18500;BME280;9379;52.134;11.576;2023-07-13T10:48:49;100857.94;;;25.72;58.98
18500;BME280;9379;52.134;11.576;2023-07-13T10:51:19;100855.84;;;25.86;57.79
18500;BME280;9379;52.134;11.576;2023-07-13T10:53:48;100842.75;;;26.66;57.37
18500;BME280;9379;52.134;11.576;2023-07-13T10:56:39;100853.34;;;27.21;55.41
18500;BME280;9379;52.134;11.576;2023-07-13T10:59:12;100856.97;;;26.92;57.00
18500;BME280;9379;52.134;11.576;2023-07-13T11:01:49;100857.06;;;26.20;54.83
18500;BME280;9379;52.134;11.576;2023-07-13T11:04:18;100856.59;;;26.65;54.35
18500;BME280;9379;52.134;11.576;2023-07-13T11:06:50;100858.47;;;27.58;56.17
18500;BME280;9379;52.134;11.576;2023-07-13T11:12:09;100859.34;;;27.35;52.51
18500;BME280;9379;52.134;11.576;2023-07-13T11:14:43;100863.94;;;27.98;52.93
18500;BME280;9379;52.134;11.576;2023-07-13T11:17:37;100851.00;;;27.65;51.35
18500;BME280;9379;52.134;11.576;2023-07-13T11:20:32;100855.34;;;27.14;54.03
18500;BME280;9379;52.134;11.576;2023-07-13T11:23:19;100847.59;;;26.76;51.64
18500;BME280;9379;52.134;11.576;2023-07-13T11:25:47;100849.81;;;27.49;52.08
18500;BME280;9379;52.134;11.576;2023-07-13T11:28:21;100847.91;;;27.73;51.05
18500;BME280;9379;52.134;11.576;2023-07-13T11:30:50;100857.19;;;27.49;52.46
18500;BME280;9379;52.134;11.576;2023-07-13T11:36:13;100862.72;;;26.49;55.40
18500;BME280;9379;52.134;11.576;2023-07-13T11:38:43;100856.81;;;26.40;56.06
18500;BME280;9379;52.134;11.576;2023-07-13T11:41:15;100859.13;;;27.37;52.40
18500;BME280;9379;52.134;11.576;2023-07-13T11:43:45;100853.78;;;27.30;52.80
18500;BME280;9379;52.134;11.576;2023-07-13T11:46:13;100849.41;;;27.17;53.69
18500;BME280;9379;52.134;11.576;2023-07-13T11:48:41;100847.13;;;26.67;54.38
18500;BME280;9379;52.134;11.576;2023-07-13T11:51:18;100857.44;;;26.77;54.98
18500;BME280;9379;52.134;11.576;2023-07-13T11:53:47;100857.72;;;27.22;54.31
18500;BME280;9379;52.134;11.576;2023-07-13T11:56:15;100842.84;;;26.83;54.74
18500;BME280;9379;52.134;11.576;2023-07-13T11:58:42;100845.25;;;27.26;53.67
18500;BME280;9379;52.134;11.576;2023-07-13T12:01:18;100835.88;;;26.87;52.45
18500;BME280;9379;52.134;11.576;2023-07-13T12:03:47;100843.81;;;26.65;54.85
18500;BME280;9379;52.134;11.576;2023-07-13T12:06:35;100852.56;;;27.49;52.79
18500;BME280;9379;52.134;11.576;2023-07-13T12:09:12;100850.38;;;27.75;51.95
18500;BME280;9379;52.134;11.576;2023-07-13T12:11:41;100841.44;;;28.87;50.50
18500;BME280;9379;52.134;11.576;2023-07-13T12:14:13;100838.72;;;28.87;51.24
18500;BME280;9379;52.134;11.576;2023-07-13T12:16:43;100845.72;;;29.16;49.01
18500;BME280;9379;52.134;11.576;2023-07-13T12:19:17;100841.13;;;28.04;51.34
18500;BME280;9379;52.134;11.576;2023-07-13T12:21:46;100830.78;;;28.06;51.18
18500;BME280;9379;52.134;11.576;2023-07-13T12:24:18;100840.03;;;28.05;50.07
18500;BME280;9379;52.134;11.576;2023-07-13T12:26:50;100842.69;;;27.72;49.70
18500;BME280;9379;52.134;11.576;2023-07-13T12:29:18;100834.75;;;27.47;51.57
18500;BME280;9379;52.134;11.576;2023-07-13T12:31:48;100843.00;;;27.00;51.54
18500;BME280;9379;52.134;11.576;2023-07-13T12:34:16;100853.94;;;27.12;53.09
18500;BME280;9379;52.134;11.576;2023-07-13T12:36:48;100847.25;;;27.08;53.80
18500;BME280;9379;52.134;11.576;2023-07-13T12:39:18;100850.47;;;27.04;53.35
18500;BME280;9379;52.134;11.576;2023-07-13T12:41:46;100846.91;;;25.97;54.17
18500;BME280;9379;52.134;11.576;2023-07-13T12:44:15;100849.78;;;27.09;52.47
18500;BME280;9379;52.134;11.576;2023-07-13T12:46:53;100842.25;;;27.40;51.92
18500;BME280;9379;52.134;11.576;2023-07-13T12:49:23;100839.88;;;27.31;51.22
18500;BME280;9379;52.134;11.576;2023-07-13T12:51:50;100834.56;;;27.37;50.57
18500;BME280;9379;52.134;11.576;2023-07-13T12:54:22;100823.78;;;27.18;51.44
18500;BME280;9379;52.134;11.576;2023-07-13T12:56:49;100827.75;;;27.91;50.69
18500;BME280;9379;52.134;11.576;2023-07-13T12:59:20;100843.75;;;27.71;52.72
18500;BME280;9379;52.134;11.576;2023-07-13T13:01:48;100844.81;;;27.98;52.21
18500;BME280;9379;52.134;11.576;2023-07-13T13:04:17;100848.50;;;28.20;51.69
18500;BME280;9379;52.134;11.576;2023-07-13T13:06:47;100838.78;;;27.68;50.40
18500;BME280;9379;52.134;11.576;2023-07-13T13:09:16;100831.44;;;28.42;49.45
18500;BME280;9379;52.134;11.576;2023-07-13T13:11:43;100830.94;;;28.28;48.47